Time;durP1;ratioP1;P1;durP2;ratioP2;P2;SDS_P1;SDS_P2;PMS_P1;PMS_P2;Temp;Humidity;BMP_temperature;BMP_pressure;BME280_temperature;BME280_humidity;BME280_pressure;Samples;Min_cycle;Max_cycle;Signal;HPM_P1;HPM_P2
2022/03/23 00:01:21;;;;;;;58.40;23.87;;;;;;;7.08;64.58;100493.28;4371707;32;20150;-73
2022/03/23 00:03:49;;;;;;;59.72;22.85;;;;;;;7.02;64.82;100488.69;4375758;32;20063;-73
2022/03/23 00:06:17;;;;;;;53.63;22.20;;;;;;;7.06;64.40;100500.69;4360034;32;20044;-74
2022/03/23 00:08:44;;;;;;;59.35;21.52;;;;;;;6.97;64.85;100493.78;4376841;32;20104;-73
2022/03/23 00:11:11;;;;;;;60.55;23.25;;;;;;;6.71;67.27;100477.25;4377271;32;20040;-76
2022/03/23 00:13:38;;;;;;;58.10;20.55;;;;;;;6.22;68.09;100440.44;4362623;32;20031;-74
2022/03/23 00:16:05;;;;;;;50.30;23.02;;;;;;;6.23;72.19;100490.25;4383716;32;20065;-74
2022/03/23 00:18:32;;;;;;;67.10;24.80;;;;;;;5.95;76.20;100490.03;4358719;32;20051;-74
2022/03/23 00:20:59;;;;;;;61.78;23.02;;;;;;;5.79;80.92;100489.19;4369617;32;20035;-74
2022/03/23 00:23:25;;;;;;;54.00;23.20;;;;;;;5.64;77.80;100426.87;4371263;32;20159;-75
2022/03/23 00:25:53;;;;;;;65.40;22.17;;;;;;;5.46;78.95;100425.38;4372891;32;20922;-73
2022/03/23 00:28:19;;;;;;;57.95;21.85;;;;;;;5.51;80.11;100438.19;4375889;32;20332;-73
2022/03/23 00:30:50;;;;;;;63.35;23.15;;;;;;;5.28;80.15;100430.22;4381119;32;20051;-74
2022/03/23 00:33:17;;;;;;;55.12;21.73;;;;;;;5.06;84.22;100430.06;4370011;32;20064;-73
2022/03/23 00:35:43;;;;;;;60.15;22.73;;;;;;;5.12;86.94;100483.75;4382770;32;20047;-73
2022/03/23 00:38:10;;;;;;;66.97;23.67;;;;;;;4.62;87.47;100430.72;4358961;32;20069;-73
2022/03/23 00:40:38;;;;;;;62.55;23.30;;;;;;;4.32;89.53;100411.91;4373488;32;20099;-73
2022/03/23 00:43:04;;;;;;;61.20;23.10;;;;;;;4.21;91.81;100403.44;4373735;32;20035;-73
2022/03/23 00:45:37;;;;;;;66.95;22.87;;;;;;;4.07;92.65;100411.19;4387813;32;20031;-73
2022/03/23 00:48:05;;;;;;;53.87;23.25;;;;;;;4.26;94.03;100470.41;4371315;32;20076;-72
2022/03/23 00:50:33;;;;;;;67.55;20.90;;;;;;;4.08;96.41;100468.81;4383869;32;20047;-73
2022/03/23 00:53:00;;;;;;;49.60;20.23;;;;;;;3.85;97.42;100452.72;4385815;32;20354;-73
2022/03/23 00:55:27;;;;;;;68.68;21.48;;;;;;;3.87;98.04;100472.03;4385752;32;20035;-73
2022/03/23 00:57:54;;;;;;;57.70;21.73;;;;;;;3.47;99.29;100428.50;4370865;32;20023;-74
2022/03/23 01:00:22;;;;;;;56.72;24.15;;;;;;;3.36;99.63;100415.53;4383092;32;20069;-73
2022/03/23 01:02:49;;;;;;;62.42;22.67;;;;;;;3.53;100.00;100465.13;4375865;32;20051;-73
2022/03/23 01:05:16;;;;;;;66.70;24.50;;;;;;;3.45;100.00;100467.78;4370819;32;20044;-74
2022/03/23 01:07:43;;;;;;;53.05;20.62;;;;;;;3.20;100.00;100432.34;4354294;32;20040;-75
2022/03/23 01:10:12;;;;;;;49.97;20.20;;;;;;;3.31;100.00;100468.47;4353718;32;20177;-73
2022/03/23 01:12:40;;;;;;;48.53;20.60;;;;;;;2.89;100.00;100419.72;4357471;32;20040;-73
2022/03/23 01:15:09;;;;;;;87.57;22.65;;;;;;;3.07;100.00;100462.97;4357546;32;20071;-74
2022/03/23 01:17:37;;;;;;;73.30;25.55;;;;;;;3.02;100.00;100467.13;4356928;32;20118;-73
2022/03/23 01:20:06;;;;;;;49.45;20.37;;;;;;;2.94;100.00;100469.78;4369000;32;20077;-73
2022/03/23 01:22:33;;;;;;;57.67;20.92;;;;;;;2.16;100.00;100365.44;4359349;32;20296;-73
2022/03/23 01:25:00;;;;;;;63.00;22.48;;;;;;;2.66;100.00;100470.06;4369318;32;20036;-73
2022/03/23 01:27:26;;;;;;;58.75;20.83;;;;;;;2.58;100.00;100460.22;4370589;32;20067;-73
2022/03/23 01:29:53;;;;;;;64.90;21.67;;;;;;;2.59;100.00;100471.72;4371867;32;20050;-74
2022/03/23 01:32:20;;;;;;;59.38;20.55;;;;;;;2.41;100.00;100447.88;4359776;32;20177;-73
2022/03/23 01:34:47;;;;;;;58.75;20.05;;;;;;;2.17;100.00;100410.44;4362635;32;20044;-73
2022/03/23 01:37:13;;;;;;;56.17;21.83;;;;;;;2.10;100.00;100408.59;4359827;32;20467;-73
2022/03/23 01:39:40;;;;;;;55.20;19.70;;;;;;;2.16;100.00;100435.34;4354345;32;20054;-73
2022/03/23 01:42:09;;;;;;;56.88;19.52;;;;;;;1.78;100.00;100379.06;4354666;32;20034;-73
2022/03/23 01:44:36;;;;;;;51.17;19.35;;;;;;;2.07;100.00;100435.47;4370924;32;20265;-73
2022/03/23 01:47:11;;;;;;;49.22;18.85;;;;;;;2.14;100.00;100447.97;4367004;32;20051;-73
2022/03/23 01:49:51;;;;;;;55.35;20.02;;;;;;;2.08;100.00;100459.22;4360051;32;20066;-74
2022/03/23 01:52:20;;;;;;;48.67;17.85;;;;;;;1.57;100.00;100386.59;4365635;32;20059;-73
2022/03/23 01:54:48;;;;;;;54.38;19.37;;;;;;;1.84;100.00;100436.03;4355255;32;20068;-75
2022/03/23 01:57:16;;;;;;;43.45;18.30;;;;;;;1.56;100.00;100398.19;4387352;32;20079;-74
2022/03/23 01:59:44;;;;;;;39.50;17.80;;;;;;;1.54;100.00;100398.34;4354807;32;20378;-76
2022/03/23 02:02:11;;;;;;;48.67;19.17;;;;;;;1.77;100.00;100441.16;4364619;32;20039;-75
2022/03/23 02:04:39;;;;;;;48.17;17.48;;;;;;;1.75;100.00;100447.59;4369265;32;20358;-73
2022/03/23 02:07:07;;;;;;;46.40;18.08;;;;;;;1.44;100.00;100390.50;4369585;32;20208;-74
2022/03/23 02:09:36;;;;;;;46.63;18.42;;;;;;;1.37;100.00;100391.28;4369977;32;20094;-73
2022/03/23 02:12:08;;;;;;;46.63;17.42;;;;;;;1.62;100.00;100445.38;4376154;32;20032;-75
2022/03/23 02:14:35;;;;;;;52.10;18.17;;;;;;;1.51;100.00;100440.31;4373059;32;20081;-73
2022/03/23 02:17:02;;;;;;;53.72;19.73;;;;;;;1.47;100.00;100444.25;4377469;32;20061;-73
2022/03/23 02:19:29;;;;;;;46.85;18.50;;;;;;;1.18;100.00;100405.59;4384126;32;20073;-73
2022/03/23 02:21:56;;;;;;;45.15;19.92;;;;;;;1.26;100.00;100429.53;4362944;32;20023;-74
2022/03/23 02:24:26;;;;;;;47.13;16.35;;;;;;;0.99;100.00;100383.59;4365880;32;20433;-73
2022/03/23 02:26:54;;;;;;;63.90;20.45;;;;;;;0.93;100.00;100391.31;4384865;32;20069;-74
2022/03/23 02:29:22;;;;;;;58.47;20.58;;;;;;;1.26;100.00;100442.78;4385845;32;20042;-74
2022/03/23 02:31:49;;;;;;;49.63;20.58;;;;;;;0.90;100.00;100389.81;4384107;32;20064;-73
2022/03/23 02:34:15;;;;;;;55.17;19.12;;;;;;;1.07;100.00;100420.78;4372850;32;20048;-74
2022/03/23 02:36:41;;;;;;;50.65;20.60;;;;;;;1.05;100.00;100430.72;4383732;32;20084;-73
2022/03/23 02:39:08;;;;;;;51.78;19.98;;;;;;;0.92;100.00;100414.34;4364469;32;20329;-73
2022/03/23 02:41:35;;;;;;;51.25;18.27;;;;;;;0.97;100.00;100433.28;4360021;32;20067;-73
2022/03/23 02:44:01;;;;;;;48.38;18.80;;;;;;;1.04;100.00;100429.03;4378263;32;20376;-73
2022/03/23 02:46:28;;;;;;;51.53;18.85;;;;;;;0.97;100.00;100425.31;4376180;32;20068;-74
2022/03/23 02:48:55;;;;;;;48.22;18.30;;;;;;;0.65;100.00;100375.50;4356961;32;20102;-73
2022/03/23 02:51:21;;;;;;;47.35;18.55;;;;;;;0.64;100.00;100379.97;4360203;32;20417;-72
2022/03/23 03:02:35;;;;;;;42.80;17.98;;;;;;;0.86;100.00;100430.84;4378132;32;20057;-73
2022/03/23 03:05:04;;;;;;;51.90;18.48;;;;;;;0.48;100.00;100377.16;4383121;32;20039;-73
2022/03/23 03:10:25;;;;;;;53.33;18.67;;;;;;;0.43;100.00;100376.78;4370238;32;20032;-74
2022/03/23 03:12:53;;;;;;;46.05;18.85;;;;;;;0.35;100.00;100381.03;4385447;32;20047;-73
2022/03/23 03:15:21;;;;;;;48.60;20.02;;;;;;;0.71;100.00;100422.63;4370388;32;20066;-73
2022/03/23 03:17:48;;;;;;;44.78;19.10;;;;;;;0.68;100.00;100429.03;4355977;32;20933;-73
2022/03/23 03:20:15;;;;;;;52.38;20.00;;;;;;;0.66;100.00;100432.84;4361443;32;20039;-73
2022/03/23 03:22:45;;;;;;;44.40;19.30;;;;;;;0.59;100.00;100421.16;4368607;32;20061;-73
2022/03/23 03:25:20;;;;;;;46.55;18.77;;;;;;;0.22;100.00;100364.66;4379785;32;20046;-74
2022/03/23 03:27:47;;;;;;;47.00;18.65;;;;;;;0.50;100.00;100420.25;4370235;32;20068;-73
2022/03/23 03:30:17;;;;;;;50.58;19.90;;;;;;;0.47;100.00;100431.16;4370237;32;20045;-74
2022/03/23 03:32:45;;;;;;;44.38;20.27;;;;;;;0.18;100.00;100368.59;4364000;32;20417;-73
2022/03/23 03:35:13;;;;;;;43.55;17.17;;;;;;;-0.33;100.00;100303.81;4369696;32;20061;-73
2022/03/23 03:37:41;;;;;;;46.53;18.12;;;;;;;0.01;100.00;100366.75;4368180;32;20072;-73
2022/03/23 03:40:09;;;;;;;47.78;19.15;;;;;;;0.32;100.00;100418.41;4356379;32;20101;-73
2022/03/23 03:42:36;;;;;;;50.20;19.25;;;;;;;0.33;100.00;100420.06;4382644;32;20047;-73
2022/03/23 03:45:05;;;;;;;43.78;20.05;;;;;;;-0.04;100.00;100360.06;4373344;32;20047;-75
2022/03/23 03:47:32;;;;;;;46.45;18.10;;;;;;;0.29;100.00;100417.91;4380753;32;20080;-73
2022/03/23 03:49:59;;;;;;;55.78;21.37;;;;;;;-0.31;100.00;100333.62;4370256;32;20039;-74
2022/03/23 03:52:29;;;;;;;56.63;22.92;;;;;;;0.27;100.00;100428.62;4366173;32;20057;-73
2022/03/23 03:54:55;;;;;;;51.05;20.10;;;;;;;0.21;100.00;100421.28;4374298;32;20047;-73
2022/03/23 03:57:22;;;;;;;50.55;20.62;;;;;;;-0.18;100.00;100363.22;4374872;32;20390;-74
2022/03/23 03:59:48;;;;;;;49.05;20.58;;;;;;;-0.16;100.00;100366.56;4370362;32;20028;-75
2022/03/23 04:02:15;;;;;;;47.75;19.45;;;;;;;0.05;100.00;100406.03;4362216;32;20080;-75
2022/03/23 04:04:42;;;;;;;59.22;20.70;;;;;;;-0.16;100.00;100371.84;4368704;32;20031;-76
2022/03/23 04:07:08;;;;;;;51.63;21.70;;;;;;;-0.60;100.00;100305.47;4382255;32;20049;-74
2022/03/23 04:09:35;;;;;;;50.10;21.67;;;;;;;-0.06;100.00;100380.56;4364168;32;20400;-73
2022/03/23 04:12:02;;;;;;;55.72;22.02;;;;;;;-0.64;100.00;100299.66;4369822;32;20058;-73
2022/03/23 04:14:28;;;;;;;49.95;21.80;;;;;;;-0.20;100.00;100370.47;4368821;32;20036;-72
2022/03/23 04:16:55;;;;;;;61.13;24.00;;;;;;;-0.24;100.00;100366.44;4374433;32;20072;-75
2022/03/23 04:19:21;;;;;;;52.62;22.95;;;;;;;0.05;100.00;100431.66;4369980;32;20065;-74
2022/03/23 04:21:54;;;;;;;52.30;20.50;;;;;;;0.06;100.00;100423.56;4368980;32;20418;-74
2022/03/23 04:24:22;;;;;;;51.75;22.20;;;;;;;-0.28;100.00;100373.03;4365611;32;20444;-74
2022/03/23 04:26:48;;;;;;;56.47;22.75;;;;;;;0.06;100.00;100428.03;4368944;32;20110;-73
2022/03/23 04:29:14;;;;;;;45.55;22.10;;;;;;;-0.33;100.00;100354.09;4354275;32;20027;-74
2022/03/23 04:31:41;;;;;;;63.03;22.85;;;;;;;-0.31;100.00;100363.56;4374603;32;20069;-74
2022/03/23 04:34:08;;;;;;;53.75;22.60;;;;;;;-0.63;100.00;100305.75;4370144;32;20112;-74
2022/03/23 04:36:34;;;;;;;59.88;22.33;;;;;;;0.03;100.00;100415.09;4380993;32;20061;-74
2022/03/23 04:39:01;;;;;;;64.15;24.15;;;;;;;-0.30;100.00;100369.66;4380923;32;20048;-75
2022/03/23 04:41:27;;;;;;;56.08;22.27;;;;;;;-0.02;100.00;100421.69;4356825;32;20423;-73
2022/03/23 04:43:54;;;;;;;57.62;21.27;;;;;;;-0.05;100.00;100411.38;4371760;32;20043;-75
2022/03/23 04:46:21;;;;;;;56.40;22.10;;;;;;;-0.07;100.00;100413.31;4361400;32;20093;-74
2022/03/23 04:48:47;;;;;;;55.92;21.37;;;;;;;-0.04;100.00;100417.50;4384334;32;20399;-73
2022/03/23 04:51:13;;;;;;;46.78;21.40;;;;;;;-0.11;100.00;100401.38;4397465;32;20056;-74
2022/03/23 04:53:40;;;;;;;58.87;21.62;;;;;;;-0.10;100.00;100403.00;4372078;32;20133;-76
2022/03/23 04:56:07;;;;;;;58.92;21.48;;;;;;;-0.35;100.00;100363.97;4377631;32;20779;-75
2022/03/23 04:58:34;;;;;;;56.33;22.15;;;;;;;-0.03;100.00;100413.87;4386578;32;20100;-74
2022/03/23 05:01:02;;;;;;;64.50;22.98;;;;;;;-0.04;100.00;100413.03;4368191;32;20035;-73
2022/03/23 05:03:29;;;;;;;50.50;20.55;;;;;;;-0.04;100.00;100410.37;4371984;32;20032;-74
2022/03/23 05:05:56;;;;;;;56.00;18.92;;;;;;;-0.04;100.00;100410.37;4369265;32;20057;-75
2022/03/23 05:08:23;;;;;;;50.63;21.23;;;;;;;-0.32;100.00;100371.63;4370814;32;20055;-74
2022/03/23 05:10:49;;;;;;;46.50;20.10;;;;;;;-0.01;100.00;100411.91;4360980;32;20452;-73
2022/03/23 05:13:16;;;;;;;54.30;20.70;;;;;;;-0.32;100.00;100350.47;4373504;32;20073;-74
2022/03/23 05:15:42;;;;;;;57.10;20.77;;;;;;;-0.06;100.00;100393.81;4374022;32;20389;-76
2022/03/23 05:18:09;;;;;;;65.10;21.23;;;;;;;-0.24;100.00;100364.66;4381466;32;20343;-75
2022/03/23 05:20:35;;;;;;;65.25;24.37;;;;;;;0.13;100.00;100407.94;4387201;32;20043;-74
2022/03/23 05:23:02;;;;;;;68.35;22.27;;;;;;;-0.17;100.00;100349.00;4385861;32;20073;-75
2022/03/23 05:25:30;;;;;;;70.53;25.48;;;;;;;-0.05;100.00;100360.22;4386741;32;20204;-75
2022/03/23 05:27:56;;;;;;;79.05;26.60;;;;;;;0.26;100.00;100408.41;4372829;32;20348;-77
2022/03/23 05:30:23;;;;;;;103.10;31.17;;;;;;;0.34;100.00;100408.50;4385892;32;20047;-75
2022/03/23 05:32:49;;;;;;;100.50;33.05;;;;;;;0.47;100.00;100407.31;4384758;32;20188;-75
2022/03/23 05:35:17;;;;;;;87.47;29.92;;;;;;;0.58;100.00;100406.25;4378708;32;20380;-74
2022/03/23 05:37:44;;;;;;;76.30;25.17;;;;;;;0.70;100.00;100411.19;4371621;32;20115;-73
2022/03/23 05:40:11;;;;;;;78.75;25.15;;;;;;;0.75;100.00;100400.13;4370247;32;20408;-78
2022/03/23 05:42:38;;;;;;;52.22;19.33;;;;;;;0.58;100.00;100354.06;4372036;32;20104;-75
2022/03/23 05:45:05;;;;;;;62.55;21.75;;;;;;;1.03;100.00;100400.00;4382045;32;20035;-76
2022/03/23 05:47:32;;;;;;;49.55;19.30;;;;;;;1.15;100.00;100387.31;4375418;32;20031;-74
2022/03/23 05:49:58;;;;;;;47.00;18.12;;;;;;;1.14;100.00;100343.22;4371769;32;20461;-74
2022/03/23 05:52:25;;;;;;;47.08;18.85;;;;;;;1.99;100.00;100396.41;4370160;32;20035;-75
2022/03/23 05:54:52;;;;;;;62.65;20.02;;;;;;;2.52;100.00;100355.37;4357957;32;20074;-75
2022/03/23 05:57:18;;;;;;;44.28;19.17;;;;;;;3.26;100.00;100394.44;4377696;32;20165;-75
2022/03/23 05:59:47;;;;;;;44.60;20.37;;;;;;;3.89;100.00;100395.41;4386265;32;20057;-75
2022/03/23 06:02:13;;;;;;;50.65;18.20;;;;;;;4.07;100.00;100391.66;4373143;32;20036;-75
2022/03/23 06:04:40;;;;;;;51.75;19.77;;;;;;;4.42;100.00;100384.16;4369604;32;20122;-74
2022/03/23 06:07:12;;;;;;;52.42;19.30;;;;;;;4.50;100.00;100352.09;4370053;32;20073;-75
2022/03/23 06:09:39;;;;;;;54.75;18.15;;;;;;;4.54;100.00;100356.06;4368751;32;20073;-75
2022/03/23 06:12:07;;;;;;;43.17;18.55;;;;;;;4.73;100.00;100382.28;4374295;32;20047;-74
2022/03/23 06:14:34;;;;;;;48.70;19.70;;;;;;;4.48;100.00;100354.97;4370012;32;20043;-76
2022/03/23 06:17:00;;;;;;;56.08;18.37;;;;;;;4.91;100.00;100379.31;4368803;32;20072;-75
2022/03/23 06:19:27;;;;;;;52.13;18.12;;;;;;;5.30;100.00;100403.31;4386459;32;20038;-75
2022/03/23 06:21:53;;;;;;;57.55;20.12;;;;;;;5.14;100.00;100358.91;4369320;32;20047;-76
2022/03/23 06:24:20;;;;;;;55.90;19.05;;;;;;;5.41;100.00;100398.38;4385519;32;20038;-77
2022/03/23 06:26:46;;;;;;;52.95;20.40;;;;;;;5.77;100.00;100404.84;4383027;32;20047;-76
2022/03/23 06:29:13;;;;;;;50.35;20.95;;;;;;;5.96;100.00;100398.12;4372274;32;20071;-76
2022/03/23 06:31:39;;;;;;;51.97;20.80;;;;;;;5.94;100.00;100352.03;4384511;32;20061;-76
2022/03/23 06:34:07;;;;;;;51.78;20.08;;;;;;;6.31;100.00;100395.69;4385474;32;20354;-76
2022/03/23 06:36:35;;;;;;;41.40;18.05;;;;;;;6.24;100.00;100355.50;4382187;32;20051;-78
2022/03/23 06:39:01;;;;;;;54.22;19.58;;;;;;;6.28;100.00;100361.28;4380028;32;20032;-75
2022/03/23 06:41:28;;;;;;;65.43;22.00;;;;;;;6.29;100.00;100349.59;4380018;32;20056;-76
2022/03/23 06:43:54;;;;;;;40.03;17.75;;;;;;;6.64;100.00;100363.13;4374172;32;20043;-77
2022/03/23 06:46:21;;;;;;;45.28;18.58;;;;;;;6.80;99.36;100365.53;4371220;32;20045;-76
2022/03/23 06:48:48;;;;;;;54.85;19.75;;;;;;;7.25;95.41;100400.91;4382493;32;20083;-76
2022/03/23 06:51:15;;;;;;;51.33;19.55;;;;;;;7.39;94.73;100399.19;4384144;32;20208;-77
2022/03/23 06:53:42;;;;;;;65.28;22.67;;;;;;;7.34;98.03;100406.13;4383782;32;20092;-77
2022/03/23 06:56:09;;;;;;;67.10;30.52;;;;;;;6.71;99.93;100316.62;4383113;32;20471;-77
2022/03/23 06:58:37;;;;;;;60.63;23.45;;;;;;;6.91;100.00;100359.66;4372114;32;20077;-77
2022/03/23 07:01:03;;;;;;;58.53;22.15;;;;;;;7.20;100.00;100406.03;4370894;32;20443;-75
2022/03/23 07:03:30;;;;;;;56.47;20.88;;;;;;;7.19;95.13;100358.00;4372294;32;20123;-77
2022/03/23 07:05:56;;;;;;;51.13;20.20;;;;;;;7.58;96.14;100408.38;4369791;32;20073;-77
2022/03/23 07:11:08;;;;;;;56.90;20.37;;;;;;;7.49;96.63;100393.47;4382505;32;20051;-75
2022/03/23 07:13:34;;;;;;;53.78;20.10;;;;;;;7.25;96.21;100360.72;4383994;32;20072;-77
2022/03/23 07:16:01;;;;;;;50.00;21.02;;;;;;;7.30;95.50;100362.00;4364174;32;20395;-74
2022/03/23 07:18:28;;;;;;;44.72;19.55;;;;;;;7.67;91.40;100392.94;4383220;32;20098;-77
2022/03/23 07:20:54;;;;;;;44.83;17.35;;;;;;;7.91;81.65;100354.09;4371793;32;20055;-77
2022/03/23 07:23:20;;;;;;;58.33;18.83;;;;;;;8.29;81.46;100388.50;4385028;32;20039;-73
2022/03/23 07:25:47;;;;;;;61.40;18.85;;;;;;;8.47;79.16;100385.28;4385885;32;20121;-73
2022/03/23 07:28:14;;;;;;;58.25;18.95;;;;;;;8.61;75.46;100379.94;4384065;32;20401;-73
2022/03/23 07:30:40;;;;;;;50.33;18.48;;;;;;;8.86;73.24;100388.25;4383374;32;20076;-73
2022/03/23 07:33:09;;;;;;;47.85;19.75;;;;;;;9.14;68.69;100396.09;4385046;32;20054;-73
2022/03/23 07:35:35;;;;;;;49.00;18.55;;;;;;;9.27;70.63;100385.38;4379430;32;20051;-73
2022/03/23 07:38:01;;;;;;;48.75;18.30;;;;;;;9.02;69.36;100349.41;4369964;32;20065;-73
2022/03/23 07:40:29;;;;;;;41.85;19.35;;;;;;;9.36;68.25;100391.34;4366014;32;20105;-74
2022/03/23 07:42:55;;;;;;;64.60;20.02;;;;;;;9.34;65.59;100357.66;4375229;32;20053;-73
2022/03/23 07:45:21;;;;;;;49.70;18.95;;;;;;;9.61;67.40;100390.69;4370702;32;20057;-73
2022/03/23 07:47:48;;;;;;;53.65;18.30;;;;;;;9.65;68.27;100386.53;4383822;32;20055;-72
2022/03/23 07:50:15;;;;;;;54.92;19.67;;;;;;;9.66;64.99;100363.19;4385471;32;20073;-73
2022/03/23 07:52:48;;;;;;;44.15;18.87;;;;;;;9.42;65.63;100312.56;4370794;32;20070;-73
2022/03/23 07:55:15;;;;;;;50.28;17.95;;;;;;;9.91;63.53;100366.00;4385106;32;20059;-73
2022/03/23 07:57:42;;;;;;;42.35;17.90;;;;;;;10.13;64.28;100378.12;4384639;32;20386;-73
2022/03/23 08:00:09;;;;;;;50.40;18.92;;;;;;;10.17;59.54;100367.75;4382980;32;20062;-73
2022/03/23 08:02:39;;;;;;;50.45;19.65;;;;;;;10.37;61.08;100375.78;4381854;32;20322;-75
2022/03/23 08:05:07;;;;;;;50.05;18.60;;;;;;;10.47;56.31;100362.66;4363978;32;20043;-73
2022/03/23 08:07:34;;;;;;;43.78;19.12;;;;;;;10.60;57.47;100374.41;4374950;32;20357;-74
2022/03/23 08:10:00;;;;;;;59.58;20.45;;;;;;;10.82;54.72;100375.69;4364470;32;20139;-74
2022/03/23 08:12:27;;;;;;;38.60;18.40;;;;;;;10.85;52.50;100364.47;4378805;32;20031;-73
2022/03/23 08:14:53;;;;;;;42.60;17.65;;;;;;;10.62;54.57;100331.91;4375311;32;20437;-72
2022/03/23 08:17:20;;;;;;;48.92;17.87;;;;;;;10.92;56.50;100374.38;4366877;32;20035;-72
2022/03/23 08:20:32;;;;;;;44.25;17.02;;;;;;;10.83;55.56;100363.88;4367906;32;20365;-73
2022/03/23 08:22:33;;;;;;;49.60;18.10;;;;;;;11.12;51.85;100375.06;4378024;32;20034;-72
2022/03/23 08:25:00;;;;;;;38.33;16.15;;;;;;;11.32;49.50;100363.25;4369386;32;20043;-74
2022/03/23 08:27:26;;;;;;;35.42;16.85;;;;;;;11.15;49.93;100331.44;4379501;32;20132;-73
2022/03/23 08:29:53;;;;;;;44.63;18.27;;;;;;;11.21;47.83;100330.56;4379820;32;20035;-72
2022/03/23 08:32:22;;;;;;;45.15;18.87;;;;;;;11.29;48.80;100331.34;4377057;32;20443;-73
2022/03/23 08:34:50;;;;;;;51.63;18.08;;;;;;;11.57;49.43;100355.94;4380331;32;20093;-73
2022/03/23 08:37:16;;;;;;;60.85;19.67;;;;;;;11.85;47.72;100357.28;4376280;32;20039;-73
2022/03/23 08:39:43;;;;;;;72.10;18.80;;;;;;;11.94;48.28;100361.38;4380989;32;20921;-73
2022/03/23 08:42:10;;;;;;;49.30;17.15;;;;;;;12.04;46.51;100368.94;4379541;32;20058;-73
2022/03/23 08:44:37;;;;;;;47.15;16.00;;;;;;;11.60;45.84;100289.94;4364024;32;20125;-73
2022/03/23 08:47:04;;;;;;;39.92;16.40;;;;;;;11.98;45.17;100345.53;4379134;32;20039;-73
2022/03/23 08:49:30;;;;;;;34.72;15.52;;;;;;;12.19;46.50;100352.34;4377180;32;20380;-75
2022/03/23 08:51:57;;;;;;;44.05;17.45;;;;;;;12.21;46.51;100350.25;4371365;32;20085;-73
2022/03/23 08:54:24;;;;;;;41.88;16.75;;;;;;;12.03;47.35;100309.75;4372987;32;20047;-74
2022/03/23 08:56:51;;;;;;;38.63;14.75;;;;;;;11.91;45.69;100266.50;4370798;32;20047;-72
2022/03/23 08:59:18;;;;;;;38.33;15.05;;;;;;;12.74;43.85;100358.66;4345034;32;20107;-74
2022/03/23 09:01:52;;;;;;;40.42;15.70;;;;;;;12.83;42.93;100347.25;4364552;32;20065;-73
2022/03/23 09:04:18;;;;;;;37.22;14.60;;;;;;;12.90;42.92;100347.16;4381111;32;20069;-73
2022/03/23 09:06:45;;;;;;;35.60;15.48;;;;;;;12.77;42.79;100314.94;4386554;32;20065;-72
2022/03/23 09:09:12;;;;;;;60.42;17.08;;;;;;;13.06;42.34;100343.75;4387151;32;20060;-72
2022/03/23 09:11:41;;;;;;;36.72;14.55;;;;;;;13.08;41.94;100321.87;4384526;32;20367;-74
2022/03/23 09:14:09;;;;;;;36.30;14.50;;;;;;;13.29;40.24;100328.63;4387062;32;20085;-74
2022/03/23 09:16:35;;;;;;;34.17;13.57;;;;;;;13.37;42.33;100336.41;4372290;32;20068;-70
2022/03/23 09:19:02;;;;;;;30.45;14.32;;;;;;;13.57;39.87;100335.19;4386077;32;20043;-71
2022/03/23 09:21:29;;;;;;;32.50;12.77;;;;;;;13.68;40.15;100331.66;4371584;32;20519;-73
2022/03/23 09:23:55;;;;;;;19.80;10.88;;;;;;;13.72;40.15;100326.56;4373942;32;20089;-72
2022/03/23 09:26:22;;;;;;;29.95;14.25;;;;;;;13.90;37.90;100339.13;4384394;32;20731;-73
2022/03/23 09:28:51;;;;;;;36.00;13.95;;;;;;;13.92;38.33;100326.19;4372222;32;20070;-72
2022/03/23 09:31:18;;;;;;;25.52;12.82;;;;;;;13.77;38.37;100291.50;4371294;32;20079;-73
2022/03/23 09:33:48;;;;;;;27.85;11.07;;;;;;;13.75;37.57;100282.78;4356447;32;20050;-72
2022/03/23 09:39:04;;;;;;;25.67;11.05;;;;;;;14.09;37.68;100272.91;4372187;32;20389;-75
2022/03/23 09:41:32;;;;;;;30.48;11.75;;;;;;;14.48;37.61;100312.88;4356882;32;20442;-73
2022/03/23 09:43:59;;;;;;;31.30;13.80;;;;;;;14.25;37.50;100270.44;4372253;32;20039;-71
2022/03/23 09:46:25;;;;;;;27.58;11.85;;;;;;;14.63;38.01;100320.47;4376956;32;20062;-72
2022/03/23 09:48:53;;;;;;;38.25;11.68;;;;;;;14.58;36.51;100317.63;4364242;32;20039;-73
2022/03/23 09:51:21;;;;;;;27.90;12.43;;;;;;;14.70;36.82;100299.44;4377174;32;20052;-76
2022/03/23 09:53:48;;;;;;;21.20;10.50;;;;;;;14.41;36.11;100248.00;4377640;32;20089;-72
2022/03/23 09:56:15;;;;;;;26.02;10.63;;;;;;;14.82;35.09;100302.91;4377868;32;20043;-74
2022/03/23 09:58:42;;;;;;;21.08;9.95;;;;;;;14.96;34.69;100305.28;4379027;32;20042;-72
2022/03/23 10:01:30;;;;;;;21.70;9.50;;;;;;;15.09;35.12;100285.94;4379380;32;20038;-74
2022/03/23 10:04:20;;;;;;;22.65;10.02;;;;;;;15.20;34.72;100290.44;4378473;32;20051;-72
2022/03/23 10:07:05;;;;;;;17.40;8.18;;;;;;;15.25;34.85;100282.41;4362278;32;20058;-74
2022/03/23 10:10:10;;;;;;;20.30;8.65;;;;;;;15.17;32.80;100288.25;4364520;32;20053;-73
2022/03/23 10:12:54;;;;;;;17.90;9.20;;;;;;;15.38;33.91;100283.94;4364207;32;20159;-73
2022/03/23 10:15:33;;;;;;;17.20;9.35;;;;;;;15.40;34.07;100237.53;4371851;32;20065;-72
2022/03/23 10:18:21;;;;;;;22.87;9.45;;;;;;;15.72;33.41;100275.66;4361816;32;20036;-74
2022/03/23 10:20:47;;;;;;;19.90;8.50;;;;;;;15.47;33.32;100273.44;4362609;32;20098;-72
2022/03/23 10:23:19;;;;;;;20.60;10.75;;;;;;;15.55;33.41;100273.00;4362811;32;20050;-74
2022/03/23 10:25:46;;;;;;;25.45;10.00;;;;;;;15.74;33.71;100275.41;4365487;32;20097;-74
2022/03/23 10:28:15;;;;;;;24.77;10.95;;;;;;;15.69;34.15;100223.78;4362777;32;20082;-73
2022/03/23 10:30:48;;;;;;;24.02;10.68;;;;;;;16.12;34.19;100257.37;4375598;32;20139;-72
2022/03/23 10:33:22;;;;;;;20.08;9.40;;;;;;;15.95;33.11;100261.00;4381848;32;20091;-72
2022/03/23 10:35:50;;;;;;;14.32;8.65;;;;;;;16.09;32.89;100260.63;4368318;32;20243;-72
2022/03/23 10:38:22;;;;;;;15.95;8.43;;;;;;;16.29;30.27;100277.13;4368170;32;20131;-71
2022/03/23 10:40:51;;;;;;;16.95;9.60;;;;;;;16.31;30.52;100249.69;4368294;32;20103;-73
2022/03/23 10:43:33;;;;;;;18.02;8.35;;;;;;;16.42;30.17;100253.28;4365407;32;20162;-72
2022/03/23 10:46:08;;;;;;;19.12;9.07;;;;;;;16.28;29.20;100217.59;4363560;32;20134;-71
2022/03/23 10:48:34;;;;;;;20.62;8.60;;;;;;;16.62;29.02;100253.47;4361417;32;20102;-72
2022/03/23 10:51:01;;;;;;;21.40;8.63;;;;;;;16.40;29.42;100247.31;4354724;32;20061;-71
2022/03/23 10:53:31;;;;;;;16.60;7.95;;;;;;;16.48;27.44;100235.94;4352405;32;20062;-73
2022/03/23 10:55:59;;;;;;;16.67;7.43;;;;;;;16.50;27.86;100217.50;4362057;32;20047;-72
2022/03/23 10:58:27;;;;;;;12.23;7.03;;;;;;;16.70;26.73;100244.00;4340466;33;20455;-71
2022/03/23 11:00:55;;;;;;;20.35;7.85;;;;;;;16.97;26.72;100233.06;4359804;32;20065;-71
2022/03/23 11:03:37;;;;;;;19.08;7.60;;;;;;;17.04;26.80;100239.12;4354138;32;20400;-74
2022/03/23 11:06:06;;;;;;;21.00;6.95;;;;;;;17.28;27.11;100222.38;4363522;32;20432;-71
2022/03/23 11:08:33;;;;;;;23.12;8.02;;;;;;;16.87;25.86;100194.94;4369094;32;20052;-72
2022/03/23 11:16:44;;;;;;;16.42;7.95;;;;;;;18.00;25.87;100210.88;4369353;32;20040;-73
2022/03/23 11:19:11;;;;;;;22.95;9.07;;;;;;;18.36;24.74;100217.19;4377459;32;20093;-71
2022/03/23 11:22:01;;;;;;;10.98;8.02;;;;;;;17.97;24.68;100207.63;4383733;32;20150;-71
2022/03/23 11:24:40;;;;;;;18.33;8.88;;;;;;;18.42;24.09;100202.47;4366452;32;20043;-72
2022/03/23 11:27:12;;;;;;;13.18;7.85;;;;;;;18.70;24.58;100157.44;4370267;32;20043;-71
2022/03/23 11:29:39;;;;;;;24.35;8.98;;;;;;;18.57;23.43;100184.47;4369336;32;20083;-71
2022/03/23 11:32:12;;;;;;;16.45;8.93;;;;;;;19.19;23.91;100172.34;4367538;32;20467;-72
2022/03/23 11:34:41;;;;;;;15.50;8.20;;;;;;;19.06;22.46;100189.31;4376392;32;20229;-73
2022/03/23 11:37:08;;;;;;;15.13;8.35;;;;;;;19.31;22.83;100185.66;4369742;32;20467;-72
2022/03/23 11:39:35;;;;;;;14.87;9.13;;;;;;;19.40;22.57;100188.63;4370221;32;20392;-72